createdAt,value
2018-02-22T00:01:29.613Z,921.13
2018-02-22T00:03:01.431Z,921.22
2018-02-22T00:04:33.248Z,921.25
2018-02-22T00:06:05.066Z,921.24
2018-02-22T00:07:36.883Z,921.26
2018-02-22T00:09:08.702Z,921.34
2018-02-22T00:10:40.519Z,921.30
2018-02-22T00:12:12.336Z,921.31
2018-02-22T00:13:44.156Z,921.35
2018-02-22T00:15:15.973Z,921.37
2018-02-22T00:16:48.042Z,921.45
2018-02-22T00:18:19.609Z,921.40
2018-02-22T00:19:51.426Z,921.42
2018-02-22T00:21:23.246Z,921.40
2018-02-22T00:22:55.164Z,921.46
2018-02-22T00:24:26.882Z,921.45
2018-02-22T00:25:58.704Z,921.47
2018-02-22T00:27:30.517Z,921.50
2018-02-22T00:29:02.338Z,921.54
2018-02-22T00:30:34.155Z,921.54
2018-02-22T00:32:05.972Z,921.56
2018-02-22T00:33:37.789Z,921.54
2018-02-22T00:35:09.707Z,921.57
2018-02-22T00:36:41.426Z,921.59
2018-02-22T00:38:13.241Z,921.64
2018-02-22T00:39:45.062Z,921.59
2018-02-22T00:41:16.879Z,921.62
2018-02-22T00:42:48.696Z,921.63
2018-02-22T00:44:20.514Z,921.64
2018-02-22T00:45:52.335Z,921.68
2018-02-22T00:47:24.249Z,921.69
2018-02-22T00:48:55.966Z,921.72
2018-02-22T00:50:27.784Z,921.72
2018-02-22T00:51:59.602Z,921.75
2018-02-22T00:53:31.670Z,921.80
2018-02-22T00:55:03.236Z,921.80
2018-02-22T00:56:35.054Z,921.75
2018-02-22T00:58:06.871Z,921.75
2018-02-22T00:59:38.689Z,921.79
2018-02-22T01:01:10.506Z,921.77
2018-02-22T01:02:42.323Z,921.76
2018-02-22T01:04:14.141Z,921.74
2018-02-22T01:05:45.958Z,921.82
2018-02-22T01:07:17.777Z,921.86
2018-02-22T01:08:49.592Z,921.86
2018-02-22T01:10:21.414Z,921.89
2018-02-22T01:11:53.328Z,921.90
2018-02-22T01:13:25.047Z,921.82
2018-02-22T01:14:56.865Z,921.83
2018-02-22T01:16:28.679Z,921.87
2018-02-22T01:18:00.597Z,921.85
2018-02-22T01:19:32.314Z,921.81
2018-02-22T01:21:04.131Z,921.83
2018-02-22T01:22:35.948Z,921.82
2018-02-22T01:24:07.865Z,921.86
2018-02-22T01:25:39.581Z,921.86
2018-02-22T01:27:11.400Z,921.86
2018-02-22T01:28:43.217Z,921.82
2018-02-22T01:30:15.134Z,921.86
2018-02-22T01:31:46.852Z,921.84
2018-02-22T01:33:18.670Z,921.82
2018-02-22T01:34:50.495Z,921.77
2018-02-22T01:36:22.302Z,921.81
2018-02-22T01:37:54.120Z,921.78
2018-02-22T01:39:25.936Z,921.74
2018-02-22T01:40:57.754Z,921.72
2018-02-22T01:42:29.575Z,921.68
2018-02-22T01:44:01.395Z,921.69
2018-02-22T01:45:33.205Z,921.67
2018-02-22T01:47:05.023Z,921.70
2018-02-22T01:48:37.141Z,921.74
2018-02-22T01:50:08.666Z,921.72
2018-02-22T01:51:40.518Z,921.75
2018-02-22T01:53:12.291Z,921.75
2018-02-22T01:54:44.207Z,921.72
2018-02-22T01:56:15.924Z,921.76
2018-02-22T01:57:47.741Z,921.78
2018-02-22T01:59:19.558Z,921.74
2018-02-22T02:00:51.376Z,921.79
2018-02-22T02:02:23.194Z,921.80
2018-02-22T02:03:55.009Z,921.80
2018-02-22T02:05:26.826Z,921.79
2018-02-22T02:06:58.743Z,921.86
2018-02-22T02:08:30.460Z,921.85
2018-02-22T02:10:02.277Z,921.89
2018-02-22T02:11:34.095Z,921.90
2018-02-22T02:13:05.916Z,921.95
2018-02-22T02:14:37.729Z,921.93
2018-02-22T02:16:09.545Z,921.96
2018-02-22T02:17:41.361Z,921.98
2018-02-22T02:19:13.279Z,922.00
2018-02-22T02:20:45.017Z,921.99
2018-02-22T02:22:16.814Z,921.99
2018-02-22T02:23:48.636Z,922.04
2018-02-22T02:25:20.648Z,922.07
2018-02-22T02:26:52.262Z,922.07
2018-02-22T02:28:24.079Z,922.04
2018-02-22T02:29:55.895Z,922.03
2018-02-22T02:31:27.713Z,922.04
2018-02-22T02:32:59.529Z,922.06
2018-02-22T02:34:31.347Z,922.03
2018-02-22T02:36:03.164Z,922.02
2018-02-22T02:37:34.981Z,921.99
2018-02-22T02:39:06.797Z,921.99
2018-02-22T02:40:38.613Z,921.95
2018-02-22T02:42:10.432Z,921.92
2018-02-22T02:43:42.347Z,921.94
2018-02-22T02:45:14.068Z,921.95
2018-02-22T02:46:45.883Z,921.94
2018-02-22T02:48:17.702Z,921.96
2018-02-22T02:49:49.616Z,921.92
2018-02-22T02:51:21.393Z,921.89
2018-02-22T02:52:53.149Z,921.83
2018-02-22T02:54:24.976Z,921.78
2018-02-22T02:55:56.885Z,921.73
2018-02-22T02:57:28.600Z,921.68
2018-02-22T02:59:00.416Z,921.64
2018-02-22T03:00:32.233Z,921.66
2018-02-22T03:02:04.149Z,921.64
2018-02-22T03:03:35.865Z,921.67
2018-02-22T03:05:07.681Z,921.70
2018-02-22T03:06:39.498Z,921.67
2018-02-22T03:08:11.313Z,921.67
2018-02-22T03:09:43.129Z,921.59
2018-02-22T03:11:14.945Z,921.59
2018-02-22T03:12:46.763Z,921.51
2018-02-22T03:14:18.578Z,921.50
2018-02-22T03:15:50.394Z,921.54
2018-02-22T03:17:22.220Z,921.45
2018-02-22T03:18:54.028Z,921.45
2018-02-22T03:20:26.046Z,921.40
2018-02-22T03:21:57.660Z,921.45
2018-02-22T03:23:29.477Z,921.38
2018-02-22T03:25:01.293Z,921.38
2018-02-22T03:26:33.214Z,921.40
2018-02-22T03:28:04.934Z,921.37
2018-02-22T03:29:36.742Z,921.37
2018-02-22T03:31:08.558Z,921.39
2018-02-22T03:32:40.375Z,921.37
2018-02-22T03:34:12.190Z,921.33
2018-02-22T03:35:44.006Z,921.35
2018-02-22T03:37:15.822Z,921.37
2018-02-22T03:38:47.738Z,921.33
2018-02-22T03:40:19.454Z,921.32
2018-02-22T03:41:51.270Z,921.32
2018-02-22T03:43:23.088Z,921.31
2018-02-22T03:44:55.004Z,921.29
2018-02-22T03:46:26.719Z,921.34
2018-02-22T03:47:58.535Z,921.26
2018-02-22T03:49:30.352Z,921.25
2018-02-22T03:51:02.268Z,921.21
2018-02-22T03:52:33.985Z,921.25
2018-02-22T03:54:05.801Z,921.23
2018-02-22T03:55:37.617Z,921.24
2018-02-22T03:57:09.634Z,921.33
2018-02-22T03:58:41.250Z,921.32
2018-02-22T04:00:13.066Z,921.26
2018-02-22T04:01:44.906Z,921.23
2018-02-22T04:03:16.701Z,921.25
2018-02-22T04:04:48.515Z,921.26
2018-02-22T04:06:20.332Z,921.20
2018-02-22T04:07:52.148Z,921.20
2018-02-22T04:09:23.964Z,921.15
2018-02-22T04:10:55.782Z,921.16
2018-02-22T04:12:27.599Z,921.09
2018-02-22T04:13:59.413Z,921.13
2018-02-22T04:15:31.431Z,921.10
2018-02-22T04:17:03.044Z,921.05
2018-02-22T04:18:34.862Z,921.03
2018-02-22T04:20:06.678Z,920.97
2018-02-22T04:21:38.496Z,920.93
2018-02-22T04:23:10.310Z,920.90
2018-02-22T04:24:42.125Z,920.90
2018-02-22T04:26:13.942Z,920.84
2018-02-22T04:27:45.858Z,920.86
2018-02-22T04:29:17.578Z,920.79
2018-02-22T04:30:49.390Z,920.83
2018-02-22T04:32:21.206Z,920.78
2018-02-22T04:33:53.121Z,920.80
2018-02-22T04:35:24.837Z,920.79
2018-02-22T04:36:56.653Z,920.76
2018-02-22T04:38:28.469Z,920.71
2018-02-22T04:40:00.289Z,920.67
2018-02-22T04:41:32.101Z,920.68
2018-02-22T04:43:03.917Z,920.70
2018-02-22T04:44:35.732Z,920.75
2018-02-22T04:46:07.653Z,920.70
2018-02-22T04:47:39.364Z,920.67
2018-02-22T04:49:11.179Z,920.65
2018-02-22T04:50:42.996Z,920.63
2018-02-22T04:52:15.012Z,920.59
2018-02-22T04:53:46.628Z,920.60
2018-02-22T04:55:18.442Z,920.59
2018-02-22T04:56:50.258Z,920.62
2018-02-22T04:58:22.224Z,920.63
2018-02-22T04:59:53.889Z,920.66
2018-02-22T05:01:25.705Z,920.59
2018-02-22T05:02:57.521Z,920.59
2018-02-22T05:04:29.436Z,920.58
2018-02-22T05:06:01.152Z,920.60
2018-02-22T05:07:32.969Z,920.58
2018-02-22T05:09:04.785Z,920.62
2018-02-22T05:10:36.700Z,920.61
2018-02-22T05:12:08.415Z,920.59
2018-02-22T05:13:40.230Z,920.56
2018-02-22T05:15:12.045Z,920.57
2018-02-22T05:16:43.962Z,920.54
2018-02-22T05:18:15.683Z,920.56
2018-02-22T05:19:47.492Z,920.55
2018-02-22T05:21:19.307Z,920.56
2018-02-22T05:22:51.124Z,920.54
2018-02-22T05:24:22.939Z,920.51
2018-02-22T05:25:54.755Z,920.48
2018-02-22T05:27:26.570Z,920.51
2018-02-22T05:28:58.587Z,920.49
2018-02-22T05:30:30.202Z,920.46
2018-02-22T05:32:02.019Z,920.49
2018-02-22T05:33:33.833Z,920.54
2018-02-22T05:35:05.648Z,920.55
2018-02-22T05:36:37.464Z,920.53
2018-02-22T05:38:09.280Z,920.53
2018-02-22T05:39:41.095Z,920.48
2018-02-22T05:41:12.910Z,920.48
2018-02-22T05:42:44.726Z,920.43
2018-02-22T05:44:16.542Z,920.44
2018-02-22T05:45:48.359Z,920.44
2018-02-22T05:47:20.273Z,920.41
2018-02-22T05:48:51.989Z,920.41
2018-02-22T05:50:23.805Z,920.42
2018-02-22T05:51:55.620Z,920.37
2018-02-22T05:53:27.539Z,920.38
2018-02-22T05:54:59.250Z,920.38
2018-02-22T05:56:31.065Z,920.38
2018-02-22T05:58:02.880Z,920.38
2018-02-22T05:59:34.696Z,920.33
2018-02-22T06:01:06.510Z,920.29
2018-02-22T06:02:38.326Z,920.28
2018-02-22T06:04:10.141Z,920.29
2018-02-22T06:05:42.058Z,920.30
2018-02-22T06:07:13.772Z,920.30
2018-02-22T06:08:45.588Z,920.29
2018-02-22T06:10:17.403Z,920.33
2018-02-22T06:11:49.219Z,920.29
2018-02-22T06:13:21.034Z,920.26
2018-02-22T06:14:52.849Z,920.25
2018-02-22T06:16:24.665Z,920.23
2018-02-22T06:17:56.480Z,920.29
2018-02-22T06:19:28.299Z,920.25
2018-02-22T06:21:00.111Z,920.28
2018-02-22T06:22:31.927Z,920.29
2018-02-22T06:24:03.943Z,920.27
2018-02-22T06:25:35.558Z,920.30
2018-02-22T06:27:07.374Z,920.29
2018-02-22T06:28:39.189Z,920.26
2018-02-22T06:30:11.005Z,920.25
2018-02-22T06:31:42.820Z,920.28
2018-02-22T06:33:14.636Z,920.25
2018-02-22T06:34:46.451Z,920.26
2018-02-22T06:36:18.266Z,920.23
2018-02-22T06:37:50.082Z,920.28
2018-02-22T06:39:21.897Z,920.25
2018-02-22T06:40:53.718Z,920.26
2018-02-22T06:42:25.629Z,920.24
2018-02-22T06:43:57.345Z,920.29
2018-02-22T06:45:29.159Z,920.27
2018-02-22T06:47:00.975Z,920.26
2018-02-22T06:48:32.791Z,920.26
2018-02-22T06:50:04.606Z,920.28
2018-02-22T06:51:36.422Z,920.25
2018-02-22T06:53:08.237Z,920.22
2018-02-22T06:54:40.152Z,920.25
2018-02-22T06:56:11.867Z,920.25
2018-02-22T06:57:43.684Z,920.23
2018-02-22T06:59:15.499Z,920.26
2018-02-22T07:00:47.515Z,920.25
2018-02-22T07:02:19.129Z,920.28
2018-02-22T07:03:50.945Z,920.29
2018-02-22T07:05:22.762Z,920.30
2018-02-22T07:06:54.576Z,920.28
2018-02-22T07:08:26.391Z,920.27
2018-02-22T07:09:58.207Z,920.26
2018-02-22T07:11:30.024Z,920.29
2018-02-22T07:13:01.837Z,920.27
2018-02-22T07:14:33.652Z,920.27
2018-02-22T07:16:05.469Z,920.27
2018-02-22T07:17:37.286Z,920.27
2018-02-22T07:19:09.199Z,920.30
2018-02-22T07:20:40.914Z,920.27
2018-02-22T07:22:12.730Z,920.31
2018-02-22T07:23:44.545Z,920.32
2018-02-22T07:25:16.510Z,920.31
2018-02-22T07:26:48.175Z,920.36
2018-02-22T07:28:19.995Z,920.32
2018-02-22T07:29:51.806Z,920.32
2018-02-22T07:31:23.621Z,920.29
2018-02-22T07:32:55.437Z,920.28
2018-02-22T07:34:27.252Z,920.27
2018-02-22T07:35:59.069Z,920.29
2018-02-22T07:37:31.083Z,920.30
2018-02-22T07:39:02.697Z,920.35
2018-02-22T07:40:34.513Z,920.40
2018-02-22T07:42:06.328Z,920.39
2018-02-22T07:43:38.143Z,920.40
2018-02-22T07:45:09.959Z,920.45
2018-02-22T07:46:41.775Z,920.45
2018-02-22T07:48:13.590Z,920.39
2018-02-22T07:49:45.405Z,920.38
2018-02-22T07:51:17.221Z,920.36
2018-02-22T07:52:49.035Z,920.39
2018-02-22T07:54:20.850Z,920.39
2018-02-22T07:55:52.866Z,920.36
2018-02-22T07:57:24.482Z,920.37
2018-02-22T07:58:56.297Z,920.38
2018-02-22T08:00:28.113Z,920.38
2018-02-22T08:02:00.035Z,920.37
2018-02-22T08:03:31.744Z,920.38
2018-02-22T08:05:03.559Z,920.40
2018-02-22T08:06:35.374Z,920.38
2018-02-22T08:08:07.192Z,920.38
2018-02-22T08:09:39.005Z,920.37
2018-02-22T08:11:10.820Z,920.39
2018-02-22T08:12:42.635Z,920.41
2018-02-22T08:14:14.801Z,920.47
2018-02-22T08:15:46.265Z,920.44
2018-02-22T08:17:18.081Z,920.48
2018-02-22T08:18:49.896Z,920.49
2018-02-22T08:20:21.711Z,920.45
2018-02-22T08:21:53.526Z,920.43
2018-02-22T08:23:25.341Z,920.46
2018-02-22T08:24:57.155Z,920.51
2018-02-22T08:26:28.973Z,920.55
2018-02-22T08:28:00.789Z,920.55
2018-02-22T08:29:32.601Z,920.56
2018-02-22T08:31:04.417Z,920.56
2018-02-22T08:32:36.432Z,920.60
2018-02-22T08:34:08.048Z,920.60
2018-02-22T08:35:39.866Z,920.64
2018-02-22T08:37:11.678Z,920.70
2018-02-22T08:38:43.644Z,920.71
2018-02-22T08:40:15.308Z,920.69
2018-02-22T08:41:47.124Z,920.72
2018-02-22T08:43:18.939Z,920.74
2018-02-22T08:44:50.754Z,920.74
2018-02-22T08:46:22.570Z,920.74
2018-02-22T08:47:54.386Z,920.75
2018-02-22T08:49:26.204Z,920.78
2018-02-22T08:50:58.116Z,920.83
2018-02-22T08:52:29.832Z,920.88
2018-02-22T08:54:01.648Z,920.87
2018-02-22T08:55:33.467Z,920.92
2018-02-22T08:57:05.380Z,920.91
2018-02-22T08:58:37.095Z,920.93
2018-02-22T09:00:08.913Z,920.97
2018-02-22T09:01:40.727Z,920.98
2018-02-22T09:03:12.641Z,920.97
2018-02-22T09:04:44.357Z,921.02
2018-02-22T09:06:16.174Z,921.00
2018-02-22T09:07:47.989Z,921.04
2018-02-22T09:09:19.905Z,921.08
2018-02-22T09:10:51.620Z,921.07
2018-02-22T09:12:23.436Z,921.04
2018-02-22T09:13:55.252Z,921.11
2018-02-22T09:15:27.068Z,921.11
2018-02-22T09:16:58.884Z,921.10
2018-02-22T09:18:30.702Z,921.09
2018-02-22T09:20:02.518Z,921.13
2018-02-22T09:21:34.331Z,921.14
2018-02-22T09:23:06.148Z,921.15
2018-02-22T09:24:37.972Z,921.13
2018-02-22T09:26:09.779Z,921.12
2018-02-22T09:27:41.696Z,921.12
2018-02-22T09:29:13.442Z,921.11
2018-02-22T09:30:45.225Z,921.10
2018-02-22T09:32:17.043Z,921.12
2018-02-22T09:33:49.007Z,921.14
2018-02-22T09:35:20.673Z,921.12
2018-02-22T09:36:52.488Z,921.14
2018-02-22T09:38:24.390Z,921.14
2018-02-22T09:39:56.219Z,921.18
2018-02-22T09:41:27.935Z,921.25
2018-02-22T09:42:59.751Z,921.32
2018-02-22T09:44:31.567Z,921.33
2018-02-22T09:46:03.483Z,921.34
2018-02-22T09:47:35.198Z,921.37
2018-02-22T09:49:07.014Z,921.46
2018-02-22T09:50:38.830Z,921.40
2018-02-22T09:52:10.647Z,921.45
2018-02-22T09:53:42.590Z,921.39
2018-02-22T09:55:14.278Z,921.41
2018-02-22T09:56:46.098Z,921.41
2018-02-22T09:58:18.061Z,921.46
2018-02-22T09:59:49.727Z,921.53
2018-02-22T10:01:21.544Z,921.55
2018-02-22T10:02:53.360Z,921.54
2018-02-22T10:04:25.377Z,921.56
2018-02-22T10:05:57.197Z,921.53
2018-02-22T10:07:28.819Z,921.57
2018-02-22T10:09:00.630Z,921.58
2018-02-22T10:10:32.444Z,921.61
2018-02-22T10:12:04.261Z,921.64
2018-02-22T10:13:36.079Z,921.69
2018-02-22T10:15:07.897Z,921.80
2018-02-22T10:16:39.713Z,921.80
2018-02-22T10:18:11.532Z,921.83
2018-02-22T10:19:43.349Z,921.80
2018-02-22T10:21:15.167Z,921.89
2018-02-22T10:22:47.091Z,921.92
2018-02-22T10:24:18.806Z,921.99
2018-02-22T10:25:50.622Z,921.91
2018-02-22T10:27:22.442Z,921.89
2018-02-22T10:28:54.260Z,921.88
2018-02-22T10:30:26.079Z,921.90
2018-02-22T10:31:57.897Z,921.89
2018-02-22T10:33:29.764Z,921.96
2018-02-22T10:35:01.537Z,922.03
2018-02-22T10:36:33.749Z,922.13
2018-02-22T10:38:05.214Z,922.12
2018-02-22T10:39:37.000Z,922.17
2018-02-22T10:41:08.914Z,922.10
2018-02-22T10:42:40.634Z,922.07
2018-02-22T10:44:12.454Z,922.07
2018-02-22T10:45:44.293Z,922.08
2018-02-22T10:47:16.372Z,922.19
2018-02-22T10:48:47.937Z,922.30
2018-02-22T10:50:19.785Z,922.25
2018-02-22T10:51:52.018Z,922.32
2018-02-22T10:53:23.377Z,922.21
2018-02-22T10:54:55.728Z,922.17
2018-02-22T10:56:27.019Z,922.22
2018-02-22T10:57:58.963Z,922.28
2018-02-22T10:59:31.116Z,922.28
2018-02-22T11:01:02.484Z,922.44
2018-02-22T11:02:34.304Z,922.43
2018-02-22T11:04:06.127Z,922.57
2018-02-22T11:05:38.248Z,922.44
2018-02-22T11:07:09.773Z,922.42
2018-02-22T11:08:41.591Z,922.36
2018-02-22T11:10:13.413Z,922.33
2018-02-22T11:11:45.235Z,922.31
2018-02-22T11:13:17.058Z,922.31
2018-02-22T11:14:48.886Z,922.36
2018-02-22T11:16:20.914Z,922.53
2018-02-22T11:17:52.970Z,922.51
2018-02-22T11:19:24.350Z,922.48
2018-02-22T11:20:56.693Z,922.52
2018-02-22T11:22:27.995Z,922.46
2018-02-22T11:23:59.818Z,922.57
2018-02-22T11:25:31.641Z,922.54
2018-02-22T11:27:03.725Z,922.57
2018-02-22T11:28:35.287Z,922.56
2018-02-22T11:30:07.112Z,922.56
2018-02-22T11:31:39.361Z,922.76
2018-02-22T11:33:11.396Z,922.74
2018-02-22T11:34:42.580Z,922.67
2018-02-22T11:36:14.504Z,922.68
2018-02-22T11:37:46.278Z,922.64
2018-02-22T11:39:18.051Z,922.66
2018-02-22T11:40:49.875Z,922.47
2018-02-22T11:42:22.135Z,922.40
2018-02-22T11:43:53.522Z,922.45
2018-02-22T11:45:25.348Z,922.37
2018-02-22T11:46:58.045Z,922.67
2018-02-22T11:48:28.996Z,922.40
2018-02-22T11:50:01.348Z,922.70
2018-02-22T11:51:33.566Z,922.76
2018-02-22T11:53:04.476Z,922.54
2018-02-22T11:54:36.393Z,922.75
2018-02-22T11:56:08.150Z,922.77
2018-02-22T11:57:39.942Z,922.84
2018-02-22T11:59:11.773Z,922.82
2018-02-22T12:00:43.591Z,922.89
2018-02-22T12:02:15.420Z,922.88
2018-02-22T12:03:47.278Z,922.87
2018-02-22T12:05:19.076Z,922.85
2018-02-22T12:06:50.904Z,922.80
2018-02-22T12:08:22.734Z,922.80
2018-02-22T12:09:54.544Z,922.72
2018-02-22T12:11:26.371Z,922.98
2018-02-22T12:12:58.295Z,923.05
2018-02-22T12:14:30.021Z,923.07
2018-02-22T12:16:01.847Z,923.00
2018-02-22T12:17:33.673Z,922.83
2018-02-22T12:19:05.499Z,922.87
2018-02-22T12:20:37.328Z,922.95
2018-02-22T12:22:09.151Z,922.62
2018-02-22T12:23:40.977Z,922.55
2018-02-22T12:25:12.803Z,922.57
2018-02-22T12:26:44.636Z,922.56
2018-02-22T12:28:16.469Z,922.76
2018-02-22T12:29:49.615Z,922.56
2018-02-22T12:31:20.205Z,922.81
2018-02-22T12:32:52.403Z,922.61
2018-02-22T12:34:23.756Z,922.51
2018-02-22T12:35:55.586Z,922.79
2018-02-22T12:37:27.405Z,922.87
2018-02-22T12:38:59.230Z,922.83
2018-02-22T12:40:31.067Z,922.50
2018-02-22T12:42:02.908Z,922.62
2018-02-22T12:43:34.707Z,922.60
2018-02-22T12:45:06.532Z,922.86
2018-02-22T12:46:38.388Z,922.94
2018-02-22T12:48:10.182Z,922.85
2018-02-22T12:49:42.209Z,922.86
2018-02-22T12:51:13.832Z,922.82
2018-02-22T12:52:45.657Z,922.81
2018-02-22T12:54:17.487Z,922.88
2018-02-22T12:55:49.310Z,922.89
2018-02-22T12:57:21.136Z,922.85
2018-02-22T12:58:53.012Z,922.89
2018-02-22T13:00:24.790Z,922.68
2018-02-22T13:01:56.653Z,923.01
2018-02-22T13:03:28.444Z,922.91
2018-02-22T13:05:00.271Z,922.88
2018-02-22T13:06:32.099Z,922.84
2018-02-22T13:08:04.027Z,922.80
2018-02-22T13:09:35.752Z,922.77
2018-02-22T13:11:07.580Z,922.81
2018-02-22T13:12:39.600Z,922.75
2018-02-22T13:14:11.235Z,922.72
2018-02-22T13:15:43.063Z,922.71
2018-02-22T13:17:14.890Z,922.65
2018-02-22T13:18:46.719Z,922.70
2018-02-22T13:20:18.547Z,922.69
2018-02-22T13:21:50.376Z,922.63
2018-02-22T13:23:22.203Z,922.70
2018-02-22T13:24:54.031Z,922.77
2018-02-22T13:26:25.963Z,922.78
2018-02-22T13:27:57.686Z,922.73
2018-02-22T13:29:29.516Z,922.67
2018-02-22T13:31:01.396Z,922.62
2018-02-22T13:32:33.173Z,922.64
2018-02-22T13:34:05.001Z,922.68
2018-02-22T13:35:36.830Z,922.67
2018-02-22T13:37:08.659Z,922.74
2018-02-22T13:38:40.498Z,922.66
2018-02-22T13:40:12.318Z,922.24
2018-02-22T13:41:44.152Z,922.30
2018-02-22T13:43:15.976Z,922.24
2018-02-22T13:44:48.806Z,922.65
2018-02-22T13:46:19.632Z,922.53
2018-02-22T13:47:51.460Z,922.65
2018-02-22T13:49:23.289Z,922.69
2018-02-22T13:50:55.122Z,922.56
2018-02-22T13:52:27.059Z,922.51
2018-02-22T13:53:58.778Z,922.10
2018-02-22T13:55:30.604Z,922.15
2018-02-22T13:57:02.483Z,922.15
2018-02-22T13:58:34.262Z,922.41
2018-02-22T14:00:06.091Z,922.23
2018-02-22T14:01:38.011Z,922.14
2018-02-22T14:03:09.846Z,921.98
2018-02-22T14:04:41.574Z,922.41
2018-02-22T14:06:13.401Z,921.98
2018-02-22T14:07:45.227Z,921.96
2018-02-22T14:09:17.053Z,922.39
2018-02-22T14:10:48.886Z,922.38
2018-02-22T14:12:20.707Z,922.38
2018-02-22T14:13:52.532Z,922.31
2018-02-22T14:15:24.446Z,922.28
2018-02-22T14:16:56.187Z,922.21
2018-02-22T14:18:28.014Z,921.92
2018-02-22T14:20:00.150Z,921.94
2018-02-22T14:21:31.769Z,921.99
2018-02-22T14:23:03.496Z,922.06
2018-02-22T14:24:35.531Z,922.00
2018-02-22T14:26:07.454Z,921.97
2018-02-22T14:27:38.983Z,922.35
2018-02-22T14:29:10.807Z,922.27
2018-02-22T14:30:42.629Z,922.36
2018-02-22T14:32:14.468Z,922.31
2018-02-22T14:33:46.345Z,922.39
2018-02-22T14:35:18.108Z,922.38
2018-02-22T14:36:49.936Z,922.38
2018-02-22T14:38:21.763Z,922.37
2018-02-22T14:39:53.692Z,922.36
2018-02-22T14:42:57.249Z,922.45
2018-02-22T14:44:29.115Z,922.37
2018-02-22T14:46:00.906Z,922.27
2018-02-22T14:47:32.737Z,921.81
2018-02-22T14:49:04.566Z,922.22
2018-02-22T14:50:36.395Z,921.94
2018-02-22T14:52:08.223Z,922.21
2018-02-22T14:53:40.052Z,922.24
2018-02-22T14:55:11.880Z,922.20
2018-02-22T14:56:43.709Z,922.11
2018-02-22T14:58:15.639Z,922.08
2018-02-22T15:01:19.198Z,922.00
2018-02-22T15:02:51.028Z,921.93
2018-02-22T15:04:22.896Z,921.86
2018-02-22T15:05:54.693Z,921.86
2018-02-22T15:07:26.519Z,921.67
2018-02-22T15:08:58.350Z,921.79
2018-02-22T15:10:30.180Z,921.76
2018-02-22T15:12:02.018Z,921.78
2018-02-22T15:13:33.842Z,921.83
2018-02-22T15:15:05.676Z,921.75
2018-02-22T15:16:37.603Z,921.83
2018-02-22T15:18:09.537Z,921.49
2018-02-22T15:19:41.165Z,921.53
2018-02-22T15:21:12.996Z,921.54
2018-02-22T15:22:44.825Z,921.63
2018-02-22T15:24:16.653Z,921.99
2018-02-22T15:25:48.490Z,921.89
2018-02-22T15:27:20.308Z,921.89
2018-02-22T15:28:52.356Z,921.43
2018-02-22T15:30:23.967Z,921.45
2018-02-22T15:31:55.794Z,921.92
2018-02-22T15:33:27.622Z,921.51
2018-02-22T15:34:59.557Z,921.59
2018-02-22T15:36:31.279Z,921.54
2018-02-22T15:38:03.104Z,921.52
2018-02-22T15:39:34.931Z,921.80
2018-02-22T15:41:06.761Z,921.90
2018-02-22T15:42:38.584Z,921.55
2018-02-22T15:44:10.411Z,921.65
2018-02-22T15:45:42.237Z,922.02
2018-02-22T15:47:14.065Z,921.50
2018-02-22T15:48:45.893Z,921.49
2018-02-22T15:50:17.720Z,921.42
2018-02-22T15:51:49.547Z,921.39
2018-02-22T15:53:21.490Z,921.34
2018-02-22T15:54:53.205Z,921.36
2018-02-22T15:56:25.024Z,921.50
2018-02-22T15:57:57.511Z,921.48
2018-02-22T15:59:28.706Z,921.53
2018-02-22T16:01:00.504Z,921.66
2018-02-22T16:02:32.327Z,921.64
2018-02-22T16:04:04.157Z,921.57
2018-02-22T16:05:35.976Z,921.68
2018-02-22T16:07:07.801Z,921.57
2018-02-22T16:08:39.744Z,921.82
2018-02-22T16:10:11.515Z,921.41
2018-02-22T16:11:43.426Z,921.42
2018-02-22T16:13:15.405Z,921.55
2018-02-22T16:14:46.932Z,921.61
2018-02-22T16:16:18.750Z,921.89
2018-02-22T16:17:50.576Z,921.78
2018-02-22T16:19:22.400Z,921.89
2018-02-22T16:20:54.228Z,921.92
2018-02-22T16:22:26.053Z,921.41
2018-02-22T16:23:57.880Z,921.84
2018-02-22T16:25:29.706Z,921.76
2018-02-22T16:27:01.535Z,921.75
2018-02-22T16:30:05.588Z,921.65
2018-02-22T16:31:37.019Z,921.44
2018-02-22T16:33:09.371Z,921.54
2018-02-22T16:36:12.738Z,921.26
2018-02-22T16:39:16.634Z,921.17
2018-02-22T16:40:48.520Z,921.13
2018-02-22T16:42:19.805Z,921.10
2018-02-22T16:43:51.631Z,921.18
2018-02-22T16:45:23.460Z,921.17
2018-02-22T16:46:55.286Z,921.22
2018-02-22T16:48:27.211Z,921.27
2018-02-22T16:49:58.959Z,921.33
2018-02-22T16:51:30.756Z,921.70
2018-02-22T16:53:02.581Z,921.51
2018-02-22T16:54:34.418Z,921.15
2018-02-22T16:56:06.230Z,921.10
2018-02-22T16:57:38.105Z,921.10
2018-02-22T16:59:09.880Z,921.12
2018-02-22T17:00:41.889Z,921.19
2018-02-22T17:02:13.835Z,921.49
2018-02-22T17:03:45.563Z,921.41
2018-02-22T17:05:17.709Z,921.71
2018-02-22T17:06:49.408Z,921.47
2018-02-22T17:08:20.841Z,921.69
2018-02-22T17:09:52.655Z,921.49
2018-02-22T17:11:24.490Z,921.49
2018-02-22T17:12:56.306Z,921.40
2018-02-22T17:14:28.145Z,921.30
2018-02-22T17:15:59.957Z,921.22
2018-02-22T17:17:31.784Z,921.11
2018-02-22T17:19:03.608Z,921.20
2018-02-22T17:22:07.260Z,921.32
2018-02-22T17:23:39.609Z,921.30
2018-02-22T17:25:11.008Z,921.40
2018-02-22T17:26:42.732Z,921.28
2018-02-22T17:28:14.556Z,921.10
2018-02-22T17:29:46.387Z,921.14
2018-02-22T17:31:18.203Z,921.23
2018-02-22T17:32:50.045Z,921.39
2018-02-22T17:34:21.874Z,921.52
2018-02-22T17:35:53.675Z,921.66
2018-02-22T17:37:25.803Z,921.48
2018-02-22T17:38:57.528Z,921.39
2018-02-22T17:40:29.695Z,921.35
2018-02-22T17:42:01.604Z,921.41
2018-02-22T17:43:33.030Z,921.65
2018-02-22T17:45:04.621Z,921.44
2018-02-22T17:46:36.444Z,921.43
2018-02-22T17:48:08.274Z,921.39
2018-02-22T17:49:40.095Z,921.30
2018-02-22T17:51:11.920Z,921.32
2018-02-22T17:52:43.806Z,921.75
2018-02-22T17:54:15.570Z,921.56
2018-02-22T17:57:19.229Z,921.40
2018-02-22T17:58:51.046Z,921.24
2018-02-22T18:00:22.872Z,921.15
2018-02-22T18:01:54.697Z,921.14
2018-02-22T18:03:26.622Z,921.04
2018-02-22T18:04:58.347Z,921.26
2018-02-22T18:06:30.173Z,921.41
2018-02-22T18:08:01.994Z,921.13
2018-02-22T18:09:33.819Z,921.10
2018-02-22T18:11:05.643Z,921.37
2018-02-22T18:12:37.511Z,921.32
2018-02-22T18:14:09.290Z,921.37
2018-02-22T18:15:41.114Z,921.44
2018-02-22T18:17:12.940Z,921.35
2018-02-22T18:18:44.863Z,921.26
2018-02-22T18:20:16.587Z,921.30
2018-02-22T18:21:48.511Z,921.19
2018-02-22T18:23:20.237Z,921.03
2018-02-22T18:24:52.062Z,921.33
2018-02-22T18:26:23.888Z,921.29
2018-02-22T18:27:56.472Z,920.96
2018-02-22T18:29:27.538Z,920.88
2018-02-22T18:32:31.186Z,920.85
2018-02-22T18:34:03.163Z,920.77
2018-02-22T18:35:34.838Z,920.91
2018-02-22T18:37:06.662Z,920.94
2018-02-22T18:38:38.633Z,921.07
2018-02-22T18:40:10.412Z,921.00
2018-02-22T18:41:42.140Z,920.96
2018-02-22T18:43:13.962Z,920.95
2018-02-22T18:44:45.787Z,920.79
2018-02-22T18:46:17.612Z,920.84
2018-02-22T18:47:49.440Z,920.88
2018-02-22T18:49:21.264Z,920.89
2018-02-22T18:50:53.097Z,921.07
2018-02-22T18:52:24.915Z,920.89
2018-02-22T18:53:56.751Z,920.62
2018-02-22T18:57:00.403Z,920.83
2018-02-22T18:58:32.321Z,920.85
2018-02-22T19:00:04.041Z,920.89
2018-02-22T19:01:35.865Z,920.89
2018-02-22T19:03:07.716Z,920.74
2018-02-22T19:04:39.520Z,920.50
2018-02-22T19:06:11.379Z,920.49
2018-02-22T19:07:43.163Z,920.52
2018-02-22T19:09:14.986Z,920.48
2018-02-22T19:10:46.840Z,920.53
2018-02-22T19:12:18.634Z,920.56
2018-02-22T19:13:50.460Z,920.53
2018-02-22T19:15:22.317Z,920.65
2018-02-22T19:16:54.208Z,920.66
2018-02-22T19:18:26.206Z,920.64
2018-02-22T19:19:57.755Z,920.66